Pagrindinis puslapis
METAR-TAF:

METAR-TAF

Oro uostai :

King Salmon, Aliaska, Jungtinės Amerikos Valstijos

platuma: 58-40-36N, ilguma: 156-38-57W, Aukštis: 17 m

Dabartinis oras

Ataskaita buvo paskelbta 42 minutes, ne 20:54 UTC
Vėjas 3 kt nuo kintamojo kryptimis
Temperatūra 9°C
Drėgmė 49%
Slėgis 1005 hPa
Matomumas: 16.1 km
Giedras dangus

METAR: PAKN 212054Z VRB03KT 10SM CLR 09/M01 A2969 RMK AO2 SLP054 T00891011 51005

Laikas: 13:36 (21:36 UTC)

Prognozė

Ataskaita buvo paskelbta 4 valandos ir 16 minutes, ne 17:20 UTC
Prognozė galioja nuo 21 metu 18 UTC su 22 metu 18 UTC
Vėjas 5 kt nuo kintamojo kryptimis
Matomumas: 10 km
Giedras dangus
Nuo 21 metu 2100 UTC
Vėjas 9 kt iš Vakarų/Pietvakarių
Matomumas: 10 km
Su prošvaistėmis ne aukštis 5000 ft
Apsiniaukę ne aukštis 10000 ft
Nuo 22 metu 0300 UTC
Vėjas 12 kt iš Pietų/Pietvakarių
Matomumas: 10 km
Su prošvaistėmis ne aukštis 3500 ft
Apsiniaukę ne aukštis 5000 ft
lietus

TAF: PAKN 211720Z 2118/2218 VRB05KT P6SM SKC FM212100 25009KT P6SM BKN050 OVC100 FM220300 20012KT P6SM -SHRA BKN035 OVC050

Orai ataskaitas ir orų prognozės (METAR, TAF).

turimą stotys yra geltonos ir raudonos taškus žemėlapyje.

Perkelti pele per norėdami pamatyti stoties vardą.

Tada spustelėkite, norėdami matyti oro stebėjimo ir prognozės.

Norėdami pakeisti žemėlapį: spustelėkite ant žalios mygtukų su juodo kryžiaus žemyn,; žalią mygtuką su brūkšneliu, jei norite nutolinti; arba žalių rodyklių gretimoms žemėlapius.


METAR-TAF: